createdAt,value
2018-04-17T00:00:43.794Z,82.20
2018-04-17T00:03:11.272Z,81.90
2018-04-17T00:05:38.722Z,82.00
2018-04-17T00:08:06.172Z,82.20
2018-04-17T00:10:33.645Z,81.90
2018-04-17T00:13:01.092Z,82.10
2018-04-17T00:15:28.537Z,82.30
2018-04-17T00:17:56.021Z,82.30
2018-04-17T00:20:23.457Z,82.30
2018-04-17T00:22:50.909Z,82.10
2018-04-17T00:25:18.393Z,81.70
2018-04-17T00:27:45.840Z,81.60
2018-04-17T00:30:13.278Z,81.90
2018-04-17T00:32:40.741Z,82.40
2018-04-17T00:35:08.198Z,82.40
2018-04-17T00:37:35.672Z,83.30
2018-04-17T00:40:03.882Z,83.40
2018-04-17T00:42:31.324Z,83.40
2018-04-17T00:44:58.803Z,83.70
2018-04-17T00:47:26.241Z,83.70
2018-04-17T00:49:53.691Z,83.90
2018-04-17T00:52:21.244Z,83.70
2018-04-17T00:54:48.686Z,83.50
2018-04-17T00:57:16.889Z,83.50
2018-04-17T00:59:44.357Z,83.50
2018-04-17T01:02:11.811Z,83.60
2018-04-17T01:04:39.269Z,83.40
2018-04-17T01:07:06.741Z,83.30
2018-04-17T01:09:34.196Z,83.40
2018-04-17T01:12:01.635Z,83.80
2018-04-17T01:14:29.102Z,83.90
2018-04-17T01:16:56.544Z,84.10
2018-04-17T01:19:23.999Z,84.50
2018-04-17T01:21:51.469Z,84.30
2018-04-17T01:24:19.693Z,84.70
2018-04-17T01:26:47.160Z,84.70
2018-04-17T01:29:14.630Z,84.60
2018-04-17T01:31:42.841Z,84.30
2018-04-17T01:34:10.284Z,84.30
2018-04-17T01:36:37.774Z,84.00
2018-04-17T01:39:05.222Z,83.70
2018-04-17T01:41:32.665Z,83.20
2018-04-17T01:44:00.146Z,83.70
2018-04-17T01:46:27.582Z,83.50
2018-04-17T01:48:55.025Z,83.60
2018-04-17T01:51:22.497Z,83.30
2018-04-17T01:53:49.953Z,83.10
2018-04-17T01:56:17.398Z,83.30
2018-04-17T01:58:44.898Z,83.40
2018-04-17T02:01:12.337Z,83.10
2018-04-17T02:03:40.550Z,83.50
2018-04-17T02:06:08.031Z,83.60
2018-04-17T02:08:35.469Z,83.50
2018-04-17T02:11:02.927Z,83.40
2018-04-17T02:13:30.394Z,83.20
2018-04-17T02:15:57.837Z,83.40
2018-04-17T02:18:25.287Z,83.70
2018-04-17T02:20:52.806Z,84.00
2018-04-17T02:23:21.028Z,84.80
2018-04-17T02:25:48.460Z,84.90
2018-04-17T02:28:15.935Z,85.10
2018-04-17T02:30:43.393Z,85.20
2018-04-17T02:33:10.846Z,84.90
2018-04-17T02:35:38.333Z,84.90
2018-04-17T02:38:05.782Z,84.90
2018-04-17T02:40:33.227Z,84.70
2018-04-17T02:43:00.681Z,84.80
2018-04-17T02:45:28.129Z,84.90
2018-04-17T02:47:56.370Z,85.00
2018-04-17T02:50:24.592Z,85.10
2018-04-17T02:52:52.089Z,85.10
2018-04-17T02:55:20.342Z,85.00
2018-04-17T02:57:47.801Z,85.10
2018-04-17T03:00:16.849Z,85.30
2018-04-17T03:02:44.310Z,85.30
2018-04-17T03:05:11.755Z,85.50
2018-04-17T03:07:39.193Z,85.50
2018-04-17T03:10:06.671Z,85.60
2018-04-17T03:12:34.115Z,85.80
2018-04-17T03:15:01.596Z,85.70
2018-04-17T03:17:29.094Z,85.50
2018-04-17T03:19:56.542Z,85.30
2018-04-17T03:22:24.015Z,85.30
2018-04-17T03:24:52.244Z,85.10
2018-04-17T03:27:19.692Z,85.00
2018-04-17T03:29:47.150Z,85.20
2018-04-17T03:32:14.650Z,85.70
2018-04-17T03:34:42.086Z,85.70
2018-04-17T03:37:09.516Z,85.80
2018-04-17T03:39:37.090Z,85.60
2018-04-17T03:42:04.551Z,85.80
2018-04-17T03:44:32.027Z,86.10
2018-04-17T03:46:59.484Z,85.90
2018-04-17T03:49:27.692Z,85.90
2018-04-17T03:51:55.165Z,85.90
2018-04-17T03:54:22.622Z,86.30
2018-04-17T03:56:50.077Z,86.40
2018-04-17T03:59:17.529Z,86.40
2018-04-17T04:01:44.972Z,86.20
2018-04-17T04:04:13.178Z,86.40
2018-04-17T04:06:40.640Z,86.40
2018-04-17T04:09:08.072Z,86.80
2018-04-17T04:11:35.509Z,86.50
2018-04-17T04:14:03.800Z,86.80
2018-04-17T04:16:43.259Z,86.80
2018-04-17T04:19:22.613Z,87.60
2018-04-17T04:22:01.914Z,86.90
2018-04-17T04:24:41.344Z,86.70
2018-04-17T04:27:08.796Z,86.20
2018-04-17T04:29:36.587Z,86.30
2018-04-17T04:32:04.140Z,86.40
2018-04-17T04:34:31.745Z,86.30
2018-04-17T04:36:59.187Z,86.30
2018-04-17T04:39:27.412Z,86.60
2018-04-17T04:41:54.868Z,86.60
2018-04-17T04:44:22.313Z,86.60
2018-04-17T04:46:49.780Z,86.50
2018-04-17T04:49:17.218Z,86.70
2018-04-17T04:51:44.691Z,86.60
2018-04-17T04:54:12.143Z,86.70
2018-04-17T04:56:39.592Z,87.00
2018-04-17T04:59:07.813Z,87.10
2018-04-17T05:01:35.291Z,87.10
2018-04-17T05:04:02.747Z,87.40
2018-04-17T05:06:30.257Z,87.40
2018-04-17T05:08:57.720Z,87.10
2018-04-17T05:11:25.181Z,87.10
2018-04-17T05:13:52.621Z,87.30
2018-04-17T05:16:20.077Z,87.40
2018-04-17T05:18:47.515Z,87.40
2018-04-17T05:21:14.960Z,87.60
2018-04-17T05:23:42.412Z,87.70
2018-04-17T05:26:09.854Z,88.00
2018-04-17T05:28:37.313Z,88.10
2018-04-17T05:31:04.762Z,88.00
2018-04-17T05:33:32.962Z,87.80
2018-04-17T05:36:00.425Z,87.80
2018-04-17T05:38:27.873Z,87.80
2018-04-17T05:40:55.328Z,88.00
2018-04-17T05:43:22.776Z,88.10
2018-04-17T05:45:50.219Z,88.40
2018-04-17T05:48:17.659Z,88.50
2018-04-17T05:50:45.880Z,88.80
2018-04-17T05:53:13.322Z,88.80
2018-04-17T05:55:40.829Z,89.10
2018-04-17T05:58:08.216Z,89.20
2018-04-17T06:00:35.648Z,89.40
2018-04-17T06:03:03.856Z,89.90
2018-04-17T06:05:31.338Z,89.90
2018-04-17T06:07:58.778Z,90.10
2018-04-17T06:10:26.223Z,90.30
2018-04-17T06:12:53.682Z,90.30
2018-04-17T06:15:21.116Z,90.40
2018-04-17T06:17:48.570Z,90.50
2018-04-17T06:20:16.023Z,90.50
2018-04-17T06:22:44.240Z,90.50
2018-04-17T06:25:11.696Z,90.50
2018-04-17T06:27:39.138Z,90.60
2018-04-17T06:30:06.583Z,90.70
2018-04-17T06:32:34.033Z,90.70
2018-04-17T06:35:02.266Z,90.70
2018-04-17T06:37:29.689Z,90.80
2018-04-17T06:39:57.142Z,90.70
2018-04-17T06:42:24.584Z,90.70
2018-04-17T06:44:52.795Z,90.10
2018-04-17T06:47:20.254Z,90.10
2018-04-17T06:49:47.690Z,90.10
2018-04-17T06:52:15.132Z,90.00
2018-04-17T06:54:42.587Z,90.00
2018-04-17T06:57:10.031Z,89.90
2018-04-17T06:59:38.229Z,89.20
2018-04-17T07:02:05.724Z,89.00
2018-04-17T07:04:33.148Z,88.80
2018-04-17T07:07:00.596Z,88.90
2018-04-17T07:09:28.065Z,87.80
2018-04-17T07:11:55.512Z,87.10
2018-04-17T07:14:22.952Z,86.60
2018-04-17T07:16:50.443Z,86.30
2018-04-17T07:19:17.888Z,85.90
2018-04-17T07:21:45.357Z,85.50
2018-04-17T07:24:12.822Z,84.90
2018-04-17T07:26:41.039Z,83.80
2018-04-17T07:29:08.502Z,83.80
2018-04-17T07:31:35.959Z,83.40
2018-04-17T07:34:03.407Z,82.90
2018-04-17T07:36:30.902Z,81.50
2018-04-17T07:38:58.337Z,80.20
2018-04-17T07:41:25.787Z,80.00
2018-04-17T07:43:53.261Z,79.50
2018-04-17T07:46:20.701Z,78.50
2018-04-17T07:48:50.072Z,77.90
2018-04-17T07:51:17.762Z,77.60
2018-04-17T07:53:45.209Z,76.20
2018-04-17T07:56:12.639Z,75.40
2018-04-17T07:58:40.105Z,75.00
2018-04-17T08:01:07.548Z,75.20
2018-04-17T08:03:34.983Z,74.80
2018-04-17T08:06:03.220Z,74.40
2018-04-17T08:08:30.696Z,74.40
2018-04-17T08:10:58.136Z,73.20
2018-04-17T08:13:25.609Z,73.50
2018-04-17T08:15:53.055Z,73.40
2018-04-17T08:18:20.506Z,73.40
2018-04-17T08:20:47.969Z,73.10
2018-04-17T08:23:15.408Z,73.40
2018-04-17T08:25:42.868Z,73.10
2018-04-17T08:28:10.347Z,72.70
2018-04-17T08:30:38.137Z,71.90
2018-04-17T08:33:06.327Z,71.00
2018-04-17T08:35:33.811Z,71.00
2018-04-17T08:38:01.269Z,70.60
2018-04-17T08:40:29.478Z,68.80
2018-04-17T08:42:57.702Z,68.90
2018-04-17T08:45:25.142Z,68.90
2018-04-17T08:47:52.606Z,68.10
2018-04-17T08:50:20.053Z,68.30
2018-04-17T08:52:47.493Z,67.00
2018-04-17T08:55:14.974Z,67.50
2018-04-17T08:57:42.397Z,67.90
2018-04-17T09:00:09.875Z,67.60
2018-04-17T09:02:37.306Z,66.90
2018-04-17T09:05:05.509Z,65.60
2018-04-17T09:07:32.986Z,65.60
2018-04-17T09:10:01.177Z,65.00
2018-04-17T09:12:28.621Z,65.00
2018-04-17T09:14:56.089Z,64.90
2018-04-17T09:17:23.532Z,66.20
2018-04-17T09:19:50.972Z,65.10
2018-04-17T09:22:18.440Z,65.70
2018-04-17T09:24:46.053Z,64.00
2018-04-17T09:27:13.495Z,63.60
2018-04-17T09:29:41.741Z,62.40
2018-04-17T09:32:09.182Z,62.40
2018-04-17T09:34:36.633Z,64.40
2018-04-17T09:37:04.105Z,63.70
2018-04-17T09:39:31.540Z,63.70
2018-04-17T09:41:58.982Z,63.80
2018-04-17T09:44:26.436Z,62.50
2018-04-17T09:46:53.904Z,61.10
2018-04-17T09:49:21.345Z,61.00
2018-04-17T09:51:48.774Z,60.90
2018-04-17T09:54:17.037Z,59.00
2018-04-17T09:56:44.469Z,59.00
2018-04-17T09:59:11.914Z,59.90
2018-04-17T10:01:39.377Z,58.60
2018-04-17T10:04:06.848Z,57.50
2018-04-17T10:06:34.293Z,57.60
2018-04-17T10:09:02.425Z,56.80
2018-04-17T10:11:29.874Z,56.80
2018-04-17T10:13:57.309Z,55.60
2018-04-17T10:16:24.785Z,56.70
2018-04-17T10:18:52.224Z,55.80
2018-04-17T10:21:20.428Z,56.90
2018-04-17T10:23:47.887Z,56.80
2018-04-17T10:26:15.330Z,55.00
2018-04-17T10:28:42.765Z,55.10
2018-04-17T10:31:10.229Z,54.00
2018-04-17T10:33:37.681Z,52.90
2018-04-17T10:36:05.887Z,51.40
2018-04-17T10:38:33.343Z,51.30
2018-04-17T10:41:00.777Z,52.40
2018-04-17T10:43:28.231Z,51.40
2018-04-17T10:45:55.673Z,51.10
2018-04-17T10:48:23.137Z,51.70
2018-04-17T10:50:50.576Z,51.30
2018-04-17T10:53:18.812Z,49.10
2018-04-17T10:55:46.277Z,49.10
2018-04-17T10:58:13.711Z,49.60
2018-04-17T11:00:41.185Z,49.30
2018-04-17T11:03:08.627Z,48.60
2018-04-17T11:05:36.059Z,49.50
2018-04-17T11:08:03.522Z,48.40
2018-04-17T11:10:30.961Z,46.90
2018-04-17T11:12:58.404Z,48.20
2018-04-17T11:15:25.873Z,47.10
2018-04-17T11:17:53.307Z,47.70
2018-04-17T11:20:21.510Z,47.20
2018-04-17T11:22:48.968Z,47.30
2018-04-17T11:25:16.421Z,47.50
2018-04-17T11:27:43.901Z,46.60
2018-04-17T11:30:11.332Z,46.10
2018-04-17T11:32:38.770Z,45.80
2018-04-17T11:35:06.238Z,45.70
2018-04-17T11:37:33.683Z,45.80
2018-04-17T11:40:01.119Z,45.50
2018-04-17T11:42:29.345Z,45.80
2018-04-17T11:44:57.040Z,45.80
2018-04-17T11:47:24.477Z,45.90
2018-04-17T11:49:52.077Z,45.10
2018-04-17T11:52:19.621Z,46.00
2018-04-17T11:54:47.089Z,45.20
2018-04-17T11:57:15.317Z,43.30
2018-04-17T11:59:42.767Z,43.30
2018-04-17T12:02:10.235Z,42.70
2018-04-17T12:04:37.689Z,43.20
2018-04-17T12:07:05.142Z,43.60
2018-04-17T12:09:32.586Z,42.70
2018-04-17T12:12:00.071Z,43.00
2018-04-17T12:14:27.508Z,43.00
2018-04-17T12:16:54.943Z,43.80
2018-04-17T12:19:22.412Z,44.20
2018-04-17T12:21:49.852Z,43.20
2018-04-17T12:24:17.336Z,44.30
2018-04-17T12:26:44.780Z,46.20
2018-04-17T12:29:12.214Z,44.80
2018-04-17T12:31:39.680Z,44.80
2018-04-17T12:34:07.116Z,45.30
2018-04-17T12:36:34.562Z,44.30
2018-04-17T12:39:02.039Z,43.50
2018-04-17T12:41:29.491Z,42.50
2018-04-17T12:43:56.929Z,42.00
2018-04-17T12:46:24.405Z,41.20
2018-04-17T12:48:51.848Z,41.80
2018-04-17T12:51:19.284Z,42.50
2018-04-17T12:53:46.745Z,41.90
2018-04-17T12:56:14.183Z,40.80
2018-04-17T12:58:42.427Z,41.40
2018-04-17T13:01:09.889Z,41.40
2018-04-17T13:03:37.325Z,41.40
2018-04-17T13:06:04.776Z,40.40
2018-04-17T13:08:32.246Z,41.20
2018-04-17T13:10:59.688Z,41.50
2018-04-17T13:13:27.141Z,41.40
2018-04-17T13:15:54.604Z,42.00
2018-04-17T13:18:22.047Z,42.80
2018-04-17T13:20:49.503Z,41.30
2018-04-17T13:23:16.974Z,40.90
2018-04-17T13:25:44.413Z,41.50
2018-04-17T13:28:11.887Z,41.00
2018-04-17T13:30:39.333Z,41.70
2018-04-17T13:33:06.781Z,42.70
2018-04-17T13:35:34.337Z,42.70
2018-04-17T13:38:01.782Z,42.40
2018-04-17T13:40:29.223Z,41.60
2018-04-17T13:42:56.693Z,40.90
2018-04-17T13:45:24.124Z,41.10
2018-04-17T13:47:52.368Z,41.10
2018-04-17T13:50:19.799Z,41.20
2018-04-17T13:52:47.241Z,40.40
2018-04-17T13:55:14.706Z,40.40
2018-04-17T13:57:42.148Z,39.70
2018-04-17T14:00:09.658Z,39.10
2018-04-17T14:02:37.084Z,38.60
2018-04-17T14:05:04.529Z,39.80
2018-04-17T14:07:31.969Z,39.50
2018-04-17T14:09:59.426Z,39.90
2018-04-17T14:12:26.888Z,39.90
2018-04-17T14:14:54.337Z,40.40
2018-04-17T14:17:21.795Z,40.40
2018-04-17T14:19:49.257Z,40.80
2018-04-17T14:22:16.717Z,40.70
2018-04-17T14:24:44.165Z,41.30
2018-04-17T14:27:11.617Z,42.20
2018-04-17T14:29:39.095Z,43.10
2018-04-17T14:32:06.537Z,42.50
2018-04-17T14:34:33.974Z,42.00
2018-04-17T14:37:01.446Z,40.30
2018-04-17T14:39:28.957Z,39.70
2018-04-17T14:41:56.400Z,37.80
2018-04-17T14:44:23.845Z,38.20
2018-04-17T14:46:51.289Z,38.40
2018-04-17T14:49:18.752Z,37.90
2018-04-17T14:51:46.221Z,37.50
2018-04-17T14:54:13.672Z,37.90
2018-04-17T14:56:41.119Z,33.70
2018-04-17T14:59:08.580Z,29.30
2018-04-17T15:01:36.019Z,27.10
2018-04-17T15:04:03.486Z,27.30
2018-04-17T15:06:30.934Z,25.50
2018-04-17T15:08:58.368Z,25.90
2018-04-17T15:11:25.840Z,26.80
2018-04-17T15:13:53.281Z,28.50
2018-04-17T15:16:20.759Z,30.00
2018-04-17T15:18:48.223Z,31.40
2018-04-17T15:21:15.679Z,32.50
2018-04-17T15:23:43.145Z,34.00
2018-04-17T15:26:10.591Z,29.20
2018-04-17T15:28:38.035Z,25.70
2018-04-17T15:31:05.472Z,23.20
2018-04-17T15:33:32.931Z,21.50
2018-04-17T15:36:00.476Z,21.70
2018-04-17T15:38:27.925Z,21.40
2018-04-17T15:40:55.372Z,22.60
2018-04-17T15:43:22.848Z,21.60
2018-04-17T15:45:50.298Z,21.30
2018-04-17T15:48:17.738Z,22.50
2018-04-17T15:50:45.388Z,23.80
2018-04-17T15:53:12.776Z,21.90
2018-04-17T15:55:40.217Z,21.60
2018-04-17T15:58:07.684Z,22.40
2018-04-17T16:00:35.125Z,23.70
2018-04-17T16:03:02.593Z,25.00
2018-04-17T16:05:30.061Z,26.60
2018-04-17T16:07:57.512Z,29.20
2018-04-17T16:10:25.002Z,32.40
2018-04-17T16:12:52.507Z,33.80
2018-04-17T16:15:20.724Z,36.80
2018-04-17T16:17:48.156Z,36.20
2018-04-17T16:20:15.623Z,38.40
2018-04-17T16:22:43.094Z,39.90
2018-04-17T16:25:10.570Z,36.70
2018-04-17T16:27:38.031Z,33.90
2018-04-17T16:30:06.251Z,26.50
2018-04-17T16:32:33.730Z,26.50
2018-04-17T16:35:01.211Z,25.60
2018-04-17T16:37:28.660Z,23.60
2018-04-17T16:39:56.092Z,23.40
2018-04-17T16:42:23.561Z,23.30
2018-04-17T16:44:51.048Z,23.80
2018-04-17T16:47:19.273Z,25.40
2018-04-17T16:49:46.820Z,25.40
2018-04-17T16:52:14.275Z,25.90
2018-04-17T16:54:41.737Z,26.20
2018-04-17T16:57:09.262Z,26.90
2018-04-17T16:59:36.696Z,28.20
2018-04-17T17:02:08.017Z,29.30
2018-04-17T17:04:35.456Z,30.10
2018-04-17T17:07:02.963Z,30.80
2018-04-17T17:09:31.213Z,34.50
2018-04-17T17:11:58.656Z,34.60
2018-04-17T17:14:26.146Z,35.50
2018-04-17T17:16:54.393Z,36.10
2018-04-17T17:19:21.840Z,36.20
2018-04-17T17:21:49.329Z,38.40
2018-04-17T17:24:17.606Z,41.20
2018-04-17T17:26:45.814Z,41.70
2018-04-17T17:29:13.257Z,41.70
2018-04-17T17:31:40.723Z,42.90
2018-04-17T17:34:08.185Z,43.70
2018-04-17T17:36:35.639Z,45.40
2018-04-17T17:39:03.336Z,46.30
2018-04-17T17:41:31.895Z,48.10
2018-04-17T17:43:59.560Z,48.10
2018-04-17T17:46:27.252Z,49.00
2018-04-17T17:48:54.945Z,49.70
2018-04-17T17:51:23.405Z,51.00
2018-04-17T17:53:51.051Z,51.00
2018-04-17T17:56:19.567Z,51.60
2018-04-17T17:58:48.660Z,51.60
2018-04-17T18:01:16.335Z,51.60
2018-04-17T18:03:44.097Z,51.60
2018-04-17T18:06:11.553Z,51.10
2018-04-17T18:08:39.032Z,51.00
2018-04-17T18:11:06.497Z,51.20
2018-04-17T18:13:33.969Z,51.10
2018-04-17T18:16:01.400Z,51.00
2018-04-17T18:18:28.850Z,50.80
2018-04-17T18:20:56.322Z,51.50
2018-04-17T18:23:23.769Z,52.20
2018-04-17T18:25:51.267Z,52.60
2018-04-17T18:28:19.523Z,52.40
2018-04-17T18:30:46.978Z,52.40
2018-04-17T18:33:14.422Z,52.10
2018-04-17T18:35:41.890Z,52.00
2018-04-17T18:38:09.325Z,52.00
2018-04-17T18:40:36.775Z,52.40
2018-04-17T18:43:04.233Z,53.00
2018-04-17T18:45:31.690Z,53.50
2018-04-17T18:47:59.158Z,53.70
2018-04-17T18:50:26.602Z,53.80
2018-04-17T18:52:54.032Z,54.20
2018-04-17T18:55:21.505Z,54.10
2018-04-17T18:57:48.972Z,54.30
2018-04-17T19:00:16.430Z,54.30
2018-04-17T19:02:43.884Z,54.40
2018-04-17T19:05:11.340Z,54.40
2018-04-17T19:07:38.781Z,54.40
2018-04-17T19:10:06.252Z,54.10
2018-04-17T19:12:33.714Z,54.30
2018-04-17T19:15:01.169Z,54.80
2018-04-17T19:17:28.634Z,55.00
2018-04-17T19:19:56.082Z,55.40
2018-04-17T19:22:23.537Z,55.80
2018-04-17T19:24:50.995Z,56.00
2018-04-17T19:27:18.441Z,56.50
2018-04-17T19:29:45.901Z,56.70
2018-04-17T19:32:13.371Z,57.10
2018-04-17T19:34:40.810Z,57.20
2018-04-17T19:37:11.100Z,57.40
2018-04-17T19:39:38.594Z,57.50
2018-04-17T19:42:06.028Z,57.80
2018-04-17T19:44:33.466Z,58.20
2018-04-17T19:47:00.934Z,58.50
2018-04-17T19:49:28.386Z,58.50
2018-04-17T19:51:55.831Z,58.40
2018-04-17T19:54:23.300Z,58.50
2018-04-17T19:56:50.744Z,58.60
2018-04-17T19:59:18.201Z,58.30
2018-04-17T20:01:45.660Z,58.50
2018-04-17T20:04:13.878Z,59.20
2018-04-17T20:06:41.322Z,59.20
2018-04-17T20:09:08.829Z,59.50
2018-04-17T20:11:36.301Z,59.30
2018-04-17T20:14:03.724Z,59.70
2018-04-17T20:16:31.960Z,59.90
2018-04-17T20:18:59.421Z,59.90
2018-04-17T20:21:26.892Z,60.20
2018-04-17T20:23:55.101Z,60.20
2018-04-17T20:26:22.625Z,60.20
2018-04-17T20:28:50.022Z,60.70
2018-04-17T20:31:17.509Z,61.10
2018-04-17T20:33:44.935Z,61.70
2018-04-17T20:36:12.374Z,61.60
2018-04-17T20:38:39.853Z,61.80
2018-04-17T20:41:07.288Z,61.70
2018-04-17T20:43:34.732Z,61.90
2018-04-17T20:46:02.206Z,62.00
2018-04-17T20:48:30.409Z,62.00
2018-04-17T20:50:57.889Z,61.90
2018-04-17T20:53:25.387Z,61.90
2018-04-17T20:55:52.828Z,61.70
2018-04-17T20:58:20.276Z,62.00
2018-04-17T21:00:48.562Z,61.80
2018-04-17T21:03:16.063Z,61.90
2018-04-17T21:05:43.508Z,62.00
2018-04-17T21:08:11.730Z,62.50
2018-04-17T21:10:39.974Z,62.40
2018-04-17T21:13:07.411Z,62.40
2018-04-17T21:15:34.858Z,62.40
2018-04-17T21:18:02.333Z,62.40
2018-04-17T21:20:29.777Z,62.60
2018-04-17T21:22:57.219Z,62.90
2018-04-17T21:25:24.691Z,63.40
2018-04-17T21:27:52.142Z,63.30
2018-04-17T21:30:19.576Z,63.00
2018-04-17T21:32:47.052Z,63.10
2018-04-17T21:35:14.541Z,63.10
2018-04-17T21:37:41.969Z,63.40
2018-04-17T21:40:09.428Z,63.60
2018-04-17T21:42:36.876Z,63.70
2018-04-17T21:45:04.315Z,63.60
2018-04-17T21:47:31.784Z,63.60
2018-04-17T21:49:59.220Z,63.60
2018-04-17T21:52:26.676Z,63.60
2018-04-17T21:54:54.157Z,63.80
2018-04-17T21:57:21.630Z,64.40
2018-04-17T21:59:49.049Z,64.80
2018-04-17T22:02:16.738Z,65.00
2018-04-17T22:04:44.173Z,64.60
2018-04-17T22:07:11.624Z,64.60
2018-04-17T22:09:39.089Z,64.70
2018-04-17T22:12:06.532Z,65.10
2018-04-17T22:14:33.987Z,64.90
2018-04-17T22:17:01.432Z,65.30
2018-04-17T22:19:28.882Z,65.30
2018-04-17T22:21:56.325Z,65.30
2018-04-17T22:24:24.559Z,65.60
2018-04-17T22:26:52.020Z,65.60
2018-04-17T22:29:19.454Z,65.80
2018-04-17T22:31:46.916Z,66.20
2018-04-17T22:34:14.367Z,66.20
2018-04-17T22:36:41.820Z,65.90
2018-04-17T22:39:09.284Z,65.60
2018-04-17T22:41:37.502Z,65.30
2018-04-17T22:44:05.712Z,65.30
2018-04-17T22:46:33.175Z,65.30
2018-04-17T22:49:00.626Z,65.10
2018-04-17T22:51:28.080Z,65.00
2018-04-17T22:53:55.553Z,64.50
2018-04-17T22:56:22.989Z,64.30
2018-04-17T22:58:50.494Z,64.30
2018-04-17T23:01:17.955Z,64.50
2018-04-17T23:03:46.167Z,65.10
2018-04-17T23:06:13.609Z,65.10
2018-04-17T23:08:41.086Z,65.20
2018-04-17T23:11:08.525Z,65.30
2018-04-17T23:13:35.977Z,65.20
2018-04-17T23:16:03.436Z,65.50
2018-04-17T23:18:30.874Z,65.80
2018-04-17T23:20:59.078Z,65.50
2018-04-17T23:23:26.535Z,65.40
2018-04-17T23:25:53.974Z,65.30
2018-04-17T23:28:21.438Z,65.30
2018-04-17T23:30:48.889Z,65.30
2018-04-17T23:33:16.337Z,65.10
2018-04-17T23:35:43.810Z,65.40
2018-04-17T23:38:11.245Z,65.50
2018-04-17T23:40:38.689Z,66.00
2018-04-17T23:43:06.927Z,66.30
2018-04-17T23:45:34.375Z,66.30
2018-04-17T23:48:01.821Z,66.20
2018-04-17T23:50:29.272Z,66.40
2018-04-17T23:52:56.725Z,66.40
2018-04-17T23:55:24.152Z,67.00
2018-04-17T23:57:51.596Z,67.40
